sensor_id;sensor_type;location;lat;lon;timestamp;temperature;humidity
51863;DHT22;37900;52.996;6.278;2023-05-14T00:01:46;17.80;92.40
51863;DHT22;37900;52.996;6.278;2023-05-14T00:04:12;17.80;92.70
51863;DHT22;37900;52.996;6.278;2023-05-14T00:06:37;17.80;92.40
51863;DHT22;37900;52.996;6.278;2023-05-14T00:09:03;17.80;92.40
51863;DHT22;37900;52.996;6.278;2023-05-14T00:11:29;17.80;92.40
51863;DHT22;37900;52.996;6.278;2023-05-14T00:13:54;17.80;92.40
51863;DHT22;37900;52.996;6.278;2023-05-14T00:16:20;17.80;92.40
51863;DHT22;37900;52.996;6.278;2023-05-14T00:18:46;17.80;92.40
51863;DHT22;37900;52.996;6.278;2023-05-14T00:21:11;17.80;92.40
51863;DHT22;37900;52.996;6.278;2023-05-14T00:23:37;17.80;92.40
51863;DHT22;37900;52.996;6.278;2023-05-14T00:26:03;17.80;92.40
51863;DHT22;37900;52.996;6.278;2023-05-14T00:28:28;17.80;92.40
51863;DHT22;37900;52.996;6.278;2023-05-14T00:30:54;17.80;92.40
51863;DHT22;37900;52.996;6.278;2023-05-14T00:33:21;17.80;92.40
51863;DHT22;37900;52.996;6.278;2023-05-14T00:35:47;17.80;92.40
51863;DHT22;37900;52.996;6.278;2023-05-14T00:38:13;17.80;92.40
51863;DHT22;37900;52.996;6.278;2023-05-14T00:40:42;17.80;92.40
51863;DHT22;37900;52.996;6.278;2023-05-14T00:43:10;17.80;92.40
51863;DHT22;37900;52.996;6.278;2023-05-14T00:45:36;17.80;92.30
51863;DHT22;37900;52.996;6.278;2023-05-14T00:48:01;17.80;92.30
51863;DHT22;37900;52.996;6.278;2023-05-14T00:50:28;17.80;92.30
51863;DHT22;37900;52.996;6.278;2023-05-14T00:52:53;17.70;92.30
51863;DHT22;37900;52.996;6.278;2023-05-14T00:55:19;17.80;92.30
51863;DHT22;37900;52.996;6.278;2023-05-14T00:57:45;17.80;92.30
51863;DHT22;37900;52.996;6.278;2023-05-14T01:00:11;17.80;92.30
51863;DHT22;37900;52.996;6.278;2023-05-14T01:02:37;17.80;92.30
51863;DHT22;37900;52.996;6.278;2023-05-14T01:05:03;17.80;92.30
51863;DHT22;37900;52.996;6.278;2023-05-14T01:10:14;17.70;92.30
51863;DHT22;37900;52.996;6.278;2023-05-14T01:12:46;17.70;92.30
51863;DHT22;37900;52.996;6.278;2023-05-14T01:15:20;17.80;92.30
51863;DHT22;37900;52.996;6.278;2023-05-14T01:17:51;17.70;92.30
51863;DHT22;37900;52.996;6.278;2023-05-14T01:20:20;17.70;92.30
51863;DHT22;37900;52.996;6.278;2023-05-14T01:22:45;17.70;92.30
51863;DHT22;37900;52.996;6.278;2023-05-14T01:25:11;17.70;92.30
51863;DHT22;37900;52.996;6.278;2023-05-14T01:27:38;17.70;92.30
51863;DHT22;37900;52.996;6.278;2023-05-14T01:32:31;17.70;92.20
51863;DHT22;37900;52.996;6.278;2023-05-14T01:34:57;17.70;92.20
51863;DHT22;37900;52.996;6.278;2023-05-14T01:37:24;17.70;92.20
51863;DHT22;37900;52.996;6.278;2023-05-14T01:39:51;17.70;92.20
51863;DHT22;37900;52.996;6.278;2023-05-14T01:42:17;17.70;92.20
51863;DHT22;37900;52.996;6.278;2023-05-14T01:44:43;17.70;92.20
51863;DHT22;37900;52.996;6.278;2023-05-14T01:47:09;17.70;92.20
51863;DHT22;37900;52.996;6.278;2023-05-14T01:49:35;17.70;92.20
51863;DHT22;37900;52.996;6.278;2023-05-14T01:52:01;17.70;92.20
51863;DHT22;37900;52.996;6.278;2023-05-14T01:54:27;17.70;92.20
51863;DHT22;37900;52.996;6.278;2023-05-14T01:56:53;17.70;92.20
51863;DHT22;37900;52.996;6.278;2023-05-14T01:59:18;17.70;92.20
51863;DHT22;37900;52.996;6.278;2023-05-14T02:01:44;17.70;92.20
51863;DHT22;37900;52.996;6.278;2023-05-14T02:04:09;17.70;92.20
51863;DHT22;37900;52.996;6.278;2023-05-14T02:06:35;17.70;92.20
51863;DHT22;37900;52.996;6.278;2023-05-14T02:09:01;17.70;92.20
51863;DHT22;37900;52.996;6.278;2023-05-14T02:11:26;17.70;92.20
51863;DHT22;37900;52.996;6.278;2023-05-14T02:13:52;17.70;92.20
51863;DHT22;37900;52.996;6.278;2023-05-14T02:16:18;17.70;92.20
51863;DHT22;37900;52.996;6.278;2023-05-14T02:18:43;17.70;92.20
51863;DHT22;37900;52.996;6.278;2023-05-14T02:21:09;17.60;92.10
51863;DHT22;37900;52.996;6.278;2023-05-14T02:23:34;17.70;92.20
51863;DHT22;37900;52.996;6.278;2023-05-14T02:26:00;17.60;92.10
51863;DHT22;37900;52.996;6.278;2023-05-14T02:28:26;17.70;92.10
51863;DHT22;37900;52.996;6.278;2023-05-14T02:30:55;17.70;92.10
51863;DHT22;37900;52.996;6.278;2023-05-14T02:33:22;17.60;92.10
51863;DHT22;37900;52.996;6.278;2023-05-14T02:35:48;17.60;92.10
51863;DHT22;37900;52.996;6.278;2023-05-14T02:38:13;17.60;92.10
51863;DHT22;37900;52.996;6.278;2023-05-14T02:40:39;17.60;92.10
51863;DHT22;37900;52.996;6.278;2023-05-14T02:43:04;17.60;92.10
51863;DHT22;37900;52.996;6.278;2023-05-14T02:45:30;17.60;92.10
51863;DHT22;37900;52.996;6.278;2023-05-14T02:47:56;17.60;92.10
51863;DHT22;37900;52.996;6.278;2023-05-14T02:50:21;17.60;92.10
51863;DHT22;37900;52.996;6.278;2023-05-14T02:52:47;17.60;92.10
51863;DHT22;37900;52.996;6.278;2023-05-14T02:55:12;17.60;92.10
51863;DHT22;37900;52.996;6.278;2023-05-14T02:57:38;17.60;92.10
51863;DHT22;37900;52.996;6.278;2023-05-14T03:00:04;17.60;92.10
51863;DHT22;37900;52.996;6.278;2023-05-14T03:02:30;17.60;92.10
51863;DHT22;37900;52.996;6.278;2023-05-14T03:04:55;17.60;92.10
51863;DHT22;37900;52.996;6.278;2023-05-14T03:07:21;17.60;92.00
51863;DHT22;37900;52.996;6.278;2023-05-14T03:09:47;17.60;92.00
51863;DHT22;37900;52.996;6.278;2023-05-14T03:12:12;17.60;92.00
51863;DHT22;37900;52.996;6.278;2023-05-14T03:14:38;17.60;92.00
51863;DHT22;37900;52.996;6.278;2023-05-14T03:17:04;17.60;92.00
51863;DHT22;37900;52.996;6.278;2023-05-14T03:19:30;17.60;92.00
51863;DHT22;37900;52.996;6.278;2023-05-14T03:21:55;17.60;92.00
51863;DHT22;37900;52.996;6.278;2023-05-14T03:24:21;17.60;92.00
51863;DHT22;37900;52.996;6.278;2023-05-14T03:26:46;17.60;92.00
51863;DHT22;37900;52.996;6.278;2023-05-14T03:29:12;17.60;92.00
51863;DHT22;37900;52.996;6.278;2023-05-14T03:31:38;17.60;92.00
51863;DHT22;37900;52.996;6.278;2023-05-14T03:34:03;17.60;92.00
51863;DHT22;37900;52.996;6.278;2023-05-14T03:36:29;17.60;92.00
51863;DHT22;37900;52.996;6.278;2023-05-14T03:38:54;17.50;92.00
51863;DHT22;37900;52.996;6.278;2023-05-14T03:41:20;17.50;92.00
51863;DHT22;37900;52.996;6.278;2023-05-14T03:43:46;17.50;92.00
51863;DHT22;37900;52.996;6.278;2023-05-14T03:46:12;17.50;92.00
51863;DHT22;37900;52.996;6.278;2023-05-14T03:48:37;17.50;92.00
51863;DHT22;37900;52.996;6.278;2023-05-14T03:51:03;17.50;92.00
51863;DHT22;37900;52.996;6.278;2023-05-14T03:53:29;17.50;92.00
51863;DHT22;37900;52.996;6.278;2023-05-14T03:55:54;17.50;91.90
51863;DHT22;37900;52.996;6.278;2023-05-14T03:58:20;17.50;92.00
51863;DHT22;37900;52.996;6.278;2023-05-14T04:00:46;17.50;91.90
51863;DHT22;37900;52.996;6.278;2023-05-14T04:03:12;17.50;92.00
51863;DHT22;37900;52.996;6.278;2023-05-14T04:05:37;17.50;92.00
51863;DHT22;37900;52.996;6.278;2023-05-14T04:08:03;17.60;92.00
51863;DHT22;37900;52.996;6.278;2023-05-14T04:10:29;17.50;92.00
51863;DHT22;37900;52.996;6.278;2023-05-14T04:12:56;17.50;92.00
51863;DHT22;37900;52.996;6.278;2023-05-14T04:15:22;17.60;92.00
51863;DHT22;37900;52.996;6.278;2023-05-14T04:17:47;17.50;91.90
51863;DHT22;37900;52.996;6.278;2023-05-14T04:20:13;17.50;91.90
51863;DHT22;37900;52.996;6.278;2023-05-14T04:22:38;17.50;91.90
51863;DHT22;37900;52.996;6.278;2023-05-14T04:25:04;17.50;91.90
51863;DHT22;37900;52.996;6.278;2023-05-14T04:27:31;17.50;91.90
51863;DHT22;37900;52.996;6.278;2023-05-14T04:29:57;17.50;91.90
51863;DHT22;37900;52.996;6.278;2023-05-14T04:32:22;17.50;91.90
51863;DHT22;37900;52.996;6.278;2023-05-14T04:34:48;17.50;91.90
51863;DHT22;37900;52.996;6.278;2023-05-14T04:37:14;17.50;91.90
51863;DHT22;37900;52.996;6.278;2023-05-14T04:39:40;17.50;91.90
51863;DHT22;37900;52.996;6.278;2023-05-14T04:42:05;17.50;91.90
51863;DHT22;37900;52.996;6.278;2023-05-14T04:44:32;17.50;91.90
51863;DHT22;37900;52.996;6.278;2023-05-14T04:46:58;17.50;91.90
51863;DHT22;37900;52.996;6.278;2023-05-14T04:49:24;17.50;91.90
51863;DHT22;37900;52.996;6.278;2023-05-14T04:51:49;17.50;91.90
51863;DHT22;37900;52.996;6.278;2023-05-14T04:54:15;17.50;91.90
51863;DHT22;37900;52.996;6.278;2023-05-14T04:56:41;17.40;91.90
51863;DHT22;37900;52.996;6.278;2023-05-14T04:59:06;17.50;92.20
51863;DHT22;37900;52.996;6.278;2023-05-14T05:01:32;17.50;91.90
51863;DHT22;37900;52.996;6.278;2023-05-14T05:03:57;17.50;91.90
51863;DHT22;37900;52.996;6.278;2023-05-14T05:06:23;17.50;91.90
51863;DHT22;37900;52.996;6.278;2023-05-14T05:08:49;17.50;91.90
51863;DHT22;37900;52.996;6.278;2023-05-14T05:11:14;17.50;91.90
51863;DHT22;37900;52.996;6.278;2023-05-14T05:13:40;17.50;92.20
51863;DHT22;37900;52.996;6.278;2023-05-14T05:16:06;17.50;92.20
51863;DHT22;37900;52.996;6.278;2023-05-14T05:18:31;17.50;92.00
51863;DHT22;37900;52.996;6.278;2023-05-14T05:20:57;17.40;92.00
51863;DHT22;37900;52.996;6.278;2023-05-14T05:23:23;17.50;92.00
51863;DHT22;37900;52.996;6.278;2023-05-14T05:25:48;17.50;92.00
51863;DHT22;37900;52.996;6.278;2023-05-14T05:28:14;17.50;92.00
51863;DHT22;37900;52.996;6.278;2023-05-14T05:30:40;17.50;91.90
51863;DHT22;37900;52.996;6.278;2023-05-14T05:33:06;17.50;92.00
51863;DHT22;37900;52.996;6.278;2023-05-14T05:35:31;17.50;92.00
51863;DHT22;37900;52.996;6.278;2023-05-14T05:37:57;17.40;91.90
51863;DHT22;37900;52.996;6.278;2023-05-14T05:40:23;17.50;92.00
51863;DHT22;37900;52.996;6.278;2023-05-14T05:42:48;17.50;92.00
51863;DHT22;37900;52.996;6.278;2023-05-14T05:45:14;17.50;92.00
51863;DHT22;37900;52.996;6.278;2023-05-14T05:47:40;17.50;92.00
51863;DHT22;37900;52.996;6.278;2023-05-14T05:50:05;17.50;92.00
51863;DHT22;37900;52.996;6.278;2023-05-14T05:52:31;17.50;92.00
51863;DHT22;37900;52.996;6.278;2023-05-14T05:54:57;17.50;92.00
51863;DHT22;37900;52.996;6.278;2023-05-14T05:57:23;17.50;92.00
51863;DHT22;37900;52.996;6.278;2023-05-14T05:59:51;17.40;92.00
51863;DHT22;37900;52.996;6.278;2023-05-14T06:02:17;17.40;92.00
51863;DHT22;37900;52.996;6.278;2023-05-14T06:04:43;17.40;92.00
51863;DHT22;37900;52.996;6.278;2023-05-14T06:07:09;17.40;92.00
51863;DHT22;37900;52.996;6.278;2023-05-14T06:09:34;17.50;92.00
51863;DHT22;37900;52.996;6.278;2023-05-14T06:12:00;17.40;92.00
51863;DHT22;37900;52.996;6.278;2023-05-14T06:14:25;17.40;92.00
51863;DHT22;37900;52.996;6.278;2023-05-14T06:16:51;17.50;92.00
51863;DHT22;37900;52.996;6.278;2023-05-14T06:19:17;17.50;92.00
51863;DHT22;37900;52.996;6.278;2023-05-14T06:21:42;17.40;92.30
51863;DHT22;37900;52.996;6.278;2023-05-14T06:24:08;17.50;92.00
51863;DHT22;37900;52.996;6.278;2023-05-14T06:26:34;17.40;92.00
51863;DHT22;37900;52.996;6.278;2023-05-14T06:29:00;17.40;92.00
51863;DHT22;37900;52.996;6.278;2023-05-14T06:31:25;17.40;92.00
51863;DHT22;37900;52.996;6.278;2023-05-14T06:33:51;17.40;92.00
51863;DHT22;37900;52.996;6.278;2023-05-14T06:36:16;17.50;92.00
51863;DHT22;37900;52.996;6.278;2023-05-14T06:38:42;17.40;92.00
51863;DHT22;37900;52.996;6.278;2023-05-14T06:41:08;17.40;92.00
51863;DHT22;37900;52.996;6.278;2023-05-14T06:43:33;17.40;92.00
51863;DHT22;37900;52.996;6.278;2023-05-14T06:45:59;17.40;92.00
51863;DHT22;37900;52.996;6.278;2023-05-14T06:48:25;17.40;92.00
51863;DHT22;37900;52.996;6.278;2023-05-14T06:50:53;17.40;92.00
51863;DHT22;37900;52.996;6.278;2023-05-14T06:53:19;17.50;92.00
51863;DHT22;37900;52.996;6.278;2023-05-14T06:55:46;17.40;92.00
51863;DHT22;37900;52.996;6.278;2023-05-14T06:58:11;17.40;92.00
51863;DHT22;37900;52.996;6.278;2023-05-14T07:00:37;17.40;92.00
51863;DHT22;37900;52.996;6.278;2023-05-14T07:03:02;17.40;92.10
51863;DHT22;37900;52.996;6.278;2023-05-14T07:05:28;17.50;92.10
51863;DHT22;37900;52.996;6.278;2023-05-14T07:07:54;17.40;92.10
51863;DHT22;37900;52.996;6.278;2023-05-14T07:10:19;17.40;92.10
51863;DHT22;37900;52.996;6.278;2023-05-14T07:12:45;17.40;92.10
51863;DHT22;37900;52.996;6.278;2023-05-14T07:15:11;17.40;92.10
51863;DHT22;37900;52.996;6.278;2023-05-14T07:17:36;17.40;92.10
51863;DHT22;37900;52.996;6.278;2023-05-14T07:20:02;17.40;92.10
51863;DHT22;37900;52.996;6.278;2023-05-14T07:22:28;17.40;92.10
51863;DHT22;37900;52.996;6.278;2023-05-14T07:24:53;17.40;92.10
51863;DHT22;37900;52.996;6.278;2023-05-14T07:27:19;17.40;92.10
51863;DHT22;37900;52.996;6.278;2023-05-14T07:29:44;17.40;92.10
51863;DHT22;37900;52.996;6.278;2023-05-14T07:32:10;17.40;92.10
51863;DHT22;37900;52.996;6.278;2023-05-14T07:34:36;17.50;92.10
51863;DHT22;37900;52.996;6.278;2023-05-14T07:37:01;17.40;92.10
51863;DHT22;37900;52.996;6.278;2023-05-14T07:39:27;17.40;92.10
51863;DHT22;37900;52.996;6.278;2023-05-14T07:41:53;17.50;92.20
51863;DHT22;37900;52.996;6.278;2023-05-14T07:44:19;17.40;92.10
51863;DHT22;37900;52.996;6.278;2023-05-14T07:46:45;17.40;92.10
51863;DHT22;37900;52.996;6.278;2023-05-14T07:49:11;17.50;92.10
51863;DHT22;37900;52.996;6.278;2023-05-14T07:51:36;17.50;92.20
51863;DHT22;37900;52.996;6.278;2023-05-14T07:54:02;17.40;92.10
51863;DHT22;37900;52.996;6.278;2023-05-14T07:56:28;17.40;92.10
51863;DHT22;37900;52.996;6.278;2023-05-14T07:58:53;17.40;92.20
51863;DHT22;37900;52.996;6.278;2023-05-14T08:01:19;17.40;92.20
51863;DHT22;37900;52.996;6.278;2023-05-14T08:03:45;17.40;92.20
51863;DHT22;37900;52.996;6.278;2023-05-14T08:06:10;17.40;92.20
51863;DHT22;37900;52.996;6.278;2023-05-14T08:08:36;17.40;92.20
51863;DHT22;37900;52.996;6.278;2023-05-14T08:11:02;17.40;92.20
51863;DHT22;37900;52.996;6.278;2023-05-14T08:13:27;17.40;92.20
51863;DHT22;37900;52.996;6.278;2023-05-14T08:15:53;17.40;92.20
51863;DHT22;37900;52.996;6.278;2023-05-14T08:18:19;17.50;92.30
51863;DHT22;37900;52.996;6.278;2023-05-14T08:20:45;17.40;92.30
51863;DHT22;37900;52.996;6.278;2023-05-14T08:23:11;17.40;92.30
51863;DHT22;37900;52.996;6.278;2023-05-14T08:25:37;17.50;92.30
51863;DHT22;37900;52.996;6.278;2023-05-14T08:28:02;17.40;92.30
51863;DHT22;37900;52.996;6.278;2023-05-14T08:30:29;17.40;92.40
51863;DHT22;37900;52.996;6.278;2023-05-14T08:32:54;17.40;92.50
51863;DHT22;37900;52.996;6.278;2023-05-14T08:35:20;17.40;92.60
51863;DHT22;37900;52.996;6.278;2023-05-14T08:37:45;17.40;92.60
51863;DHT22;37900;52.996;6.278;2023-05-14T08:40:11;17.30;92.60
51863;DHT22;37900;52.996;6.278;2023-05-14T08:42:37;17.40;92.60
51863;DHT22;37900;52.996;6.278;2023-05-14T08:45:12;17.40;92.70
51863;DHT22;37900;52.996;6.278;2023-05-14T08:47:40;17.40;92.70
51863;DHT22;37900;52.996;6.278;2023-05-14T08:50:07;17.40;92.70
51863;DHT22;37900;52.996;6.278;2023-05-14T08:52:33;17.40;92.80
51863;DHT22;37900;52.996;6.278;2023-05-14T08:55:00;17.40;92.80
51863;DHT22;37900;52.996;6.278;2023-05-14T08:57:25;17.40;92.80
51863;DHT22;37900;52.996;6.278;2023-05-14T08:59:52;17.40;92.80
51863;DHT22;37900;52.996;6.278;2023-05-14T09:02:26;17.50;92.80
51863;DHT22;37900;52.996;6.278;2023-05-14T09:04:55;17.40;92.80
51863;DHT22;37900;52.996;6.278;2023-05-14T09:07:21;17.50;92.90
51863;DHT22;37900;52.996;6.278;2023-05-14T09:09:46;17.40;92.90
51863;DHT22;37900;52.996;6.278;2023-05-14T09:12:12;17.50;92.90
51863;DHT22;37900;52.996;6.278;2023-05-14T09:14:38;17.40;93.00
51863;DHT22;37900;52.996;6.278;2023-05-14T09:17:04;17.50;93.00
51863;DHT22;37900;52.996;6.278;2023-05-14T09:19:29;17.50;93.10
51863;DHT22;37900;52.996;6.278;2023-05-14T09:21:56;17.40;93.10
51863;DHT22;37900;52.996;6.278;2023-05-14T09:24:23;17.50;93.10
51863;DHT22;37900;52.996;6.278;2023-05-14T09:26:52;17.40;93.30
51863;DHT22;37900;52.996;6.278;2023-05-14T09:29:18;17.40;93.10
51863;DHT22;37900;52.996;6.278;2023-05-14T09:31:44;17.50;93.40
51863;DHT22;37900;52.996;6.278;2023-05-14T09:34:09;17.50;93.20
51863;DHT22;37900;52.996;6.278;2023-05-14T09:36:35;17.40;93.20
51863;DHT22;37900;52.996;6.278;2023-05-14T09:39:04;17.50;93.20
51863;DHT22;37900;52.996;6.278;2023-05-14T09:41:30;17.50;93.20
51863;DHT22;37900;52.996;6.278;2023-05-14T09:43:56;17.50;93.20
51863;DHT22;37900;52.996;6.278;2023-05-14T09:46:22;17.50;93.20
51863;DHT22;37900;52.996;6.278;2023-05-14T09:48:48;17.50;93.30
51863;DHT22;37900;52.996;6.278;2023-05-14T09:51:14;17.40;93.30
51863;DHT22;37900;52.996;6.278;2023-05-14T09:53:44;17.50;93.30
51863;DHT22;37900;52.996;6.278;2023-05-14T09:56:10;17.50;93.30
51863;DHT22;37900;52.996;6.278;2023-05-14T09:58:36;17.50;93.30
51863;DHT22;37900;52.996;6.278;2023-05-14T10:01:02;17.50;93.40
51863;DHT22;37900;52.996;6.278;2023-05-14T10:03:28;17.50;93.40
51863;DHT22;37900;52.996;6.278;2023-05-14T10:05:54;17.40;93.40
51863;DHT22;37900;52.996;6.278;2023-05-14T10:08:24;17.50;93.70
51863;DHT22;37900;52.996;6.278;2023-05-14T10:10:52;17.50;93.40
51863;DHT22;37900;52.996;6.278;2023-05-14T10:13:22;17.40;93.40
51863;DHT22;37900;52.996;6.278;2023-05-14T10:16:04;17.50;93.50
51863;DHT22;37900;52.996;6.278;2023-05-14T10:18:35;17.50;93.50
51863;DHT22;37900;52.996;6.278;2023-05-14T10:21:03;17.50;93.50
51863;DHT22;37900;52.996;6.278;2023-05-14T10:23:29;17.50;93.50
51863;DHT22;37900;52.996;6.278;2023-05-14T10:25:56;17.50;93.60
51863;DHT22;37900;52.996;6.278;2023-05-14T10:28:22;17.50;93.60
51863;DHT22;37900;52.996;6.278;2023-05-14T10:30:48;17.50;93.60
51863;DHT22;37900;52.996;6.278;2023-05-14T10:33:14;17.50;93.60
51863;DHT22;37900;52.996;6.278;2023-05-14T10:35:49;17.40;93.60
51863;DHT22;37900;52.996;6.278;2023-05-14T10:38:15;17.40;93.60
51863;DHT22;37900;52.996;6.278;2023-05-14T10:40:41;17.50;93.60
51863;DHT22;37900;52.996;6.278;2023-05-14T10:43:06;17.50;93.70
51863;DHT22;37900;52.996;6.278;2023-05-14T10:45:33;17.50;93.70
51863;DHT22;37900;52.996;6.278;2023-05-14T10:47:58;17.50;93.70
51863;DHT22;37900;52.996;6.278;2023-05-14T10:50:24;17.50;93.70
51863;DHT22;37900;52.996;6.278;2023-05-14T10:52:50;17.50;93.70
51863;DHT22;37900;52.996;6.278;2023-05-14T10:55:16;17.50;93.70
51863;DHT22;37900;52.996;6.278;2023-05-14T10:57:43;17.50;93.80
51863;DHT22;37900;52.996;6.278;2023-05-14T11:00:09;17.50;93.80
51863;DHT22;37900;52.996;6.278;2023-05-14T11:02:36;17.50;93.80
51863;DHT22;37900;52.996;6.278;2023-05-14T11:07:34;17.50;93.80
51863;DHT22;37900;52.996;6.278;2023-05-14T11:10:04;17.50;93.80
51863;DHT22;37900;52.996;6.278;2023-05-14T11:12:30;17.50;93.80
51863;DHT22;37900;52.996;6.278;2023-05-14T11:14:57;17.50;93.80
51863;DHT22;37900;52.996;6.278;2023-05-14T11:17:24;17.50;93.90
51863;DHT22;37900;52.996;6.278;2023-05-14T11:19:50;17.50;93.90
51863;DHT22;37900;52.996;6.278;2023-05-14T11:22:15;17.50;93.90
51863;DHT22;37900;52.996;6.278;2023-05-14T11:24:41;17.50;93.90
51863;DHT22;37900;52.996;6.278;2023-05-14T11:27:07;17.50;93.90
51863;DHT22;37900;52.996;6.278;2023-05-14T11:29:34;17.50;93.90
51863;DHT22;37900;52.996;6.278;2023-05-14T11:32:00;17.50;93.90
51863;DHT22;37900;52.996;6.278;2023-05-14T11:34:26;17.50;93.90
51863;DHT22;37900;52.996;6.278;2023-05-14T11:36:52;17.50;94.00
51863;DHT22;37900;52.996;6.278;2023-05-14T11:39:17;17.50;94.00
51863;DHT22;37900;52.996;6.278;2023-05-14T11:41:44;17.50;94.00
51863;DHT22;37900;52.996;6.278;2023-05-14T11:44:10;17.50;94.00
51863;DHT22;37900;52.996;6.278;2023-05-14T11:46:36;17.50;94.00
51863;DHT22;37900;52.996;6.278;2023-05-14T11:49:04;17.50;94.10
51863;DHT22;37900;52.996;6.278;2023-05-14T11:51:31;17.50;94.10
51863;DHT22;37900;52.996;6.278;2023-05-14T11:53:57;17.50;94.10
51863;DHT22;37900;52.996;6.278;2023-05-14T11:56:25;17.50;94.10
51863;DHT22;37900;52.996;6.278;2023-05-14T11:58:54;17.50;94.10
51863;DHT22;37900;52.996;6.278;2023-05-14T12:01:21;17.50;94.10
51863;DHT22;37900;52.996;6.278;2023-05-14T12:03:46;17.50;94.10
51863;DHT22;37900;52.996;6.278;2023-05-14T12:06:12;17.50;94.10
51863;DHT22;37900;52.996;6.278;2023-05-14T12:08:38;17.50;94.20
51863;DHT22;37900;52.996;6.278;2023-05-14T12:11:03;17.50;94.20
51863;DHT22;37900;52.996;6.278;2023-05-14T12:13:29;17.50;94.20
51863;DHT22;37900;52.996;6.278;2023-05-14T12:15:56;17.60;94.20
51863;DHT22;37900;52.996;6.278;2023-05-14T12:18:29;17.50;94.20
51863;DHT22;37900;52.996;6.278;2023-05-14T12:20:55;17.50;94.20
51863;DHT22;37900;52.996;6.278;2023-05-14T12:23:24;17.50;94.20
51863;DHT22;37900;52.996;6.278;2023-05-14T12:25:50;17.50;94.30
51863;DHT22;37900;52.996;6.278;2023-05-14T12:28:16;17.50;94.30
51863;DHT22;37900;52.996;6.278;2023-05-14T12:30:42;17.50;94.30
51863;DHT22;37900;52.996;6.278;2023-05-14T12:33:07;17.50;94.30
51863;DHT22;37900;52.996;6.278;2023-05-14T12:35:34;17.60;94.30
51863;DHT22;37900;52.996;6.278;2023-05-14T12:38:01;17.50;94.30
51863;DHT22;37900;52.996;6.278;2023-05-14T12:40:27;17.50;94.30
51863;DHT22;37900;52.996;6.278;2023-05-14T12:42:53;17.50;94.30
51863;DHT22;37900;52.996;6.278;2023-05-14T12:45:18;17.50;94.30
51863;DHT22;37900;52.996;6.278;2023-05-14T12:47:44;17.50;94.30
51863;DHT22;37900;52.996;6.278;2023-05-14T12:50:10;17.50;94.30
51863;DHT22;37900;52.996;6.278;2023-05-14T12:52:35;17.60;94.30
51863;DHT22;37900;52.996;6.278;2023-05-14T12:55:01;17.60;94.30
51863;DHT22;37900;52.996;6.278;2023-05-14T12:57:27;17.50;94.30
51863;DHT22;37900;52.996;6.278;2023-05-14T12:59:54;17.60;94.30
51863;DHT22;37900;52.996;6.278;2023-05-14T13:02:19;17.60;94.30
51863;DHT22;37900;52.996;6.278;2023-05-14T13:04:46;17.60;94.30
51863;DHT22;37900;52.996;6.278;2023-05-14T13:07:12;17.60;94.30
51863;DHT22;37900;52.996;6.278;2023-05-14T13:09:37;17.50;94.20
51863;DHT22;37900;52.996;6.278;2023-05-14T13:12:03;17.60;94.30
51863;DHT22;37900;52.996;6.278;2023-05-14T13:14:29;17.60;94.30
51863;DHT22;37900;52.996;6.278;2023-05-14T13:16:54;17.60;94.30
51863;DHT22;37900;52.996;6.278;2023-05-14T13:19:20;17.60;94.30
51863;DHT22;37900;52.996;6.278;2023-05-14T13:21:45;17.60;94.30
51863;DHT22;37900;52.996;6.278;2023-05-14T13:24:11;17.60;94.30
51863;DHT22;37900;52.996;6.278;2023-05-14T13:26:37;17.60;94.30
51863;DHT22;37900;52.996;6.278;2023-05-14T13:29:03;17.60;94.30
51863;DHT22;37900;52.996;6.278;2023-05-14T13:31:28;17.60;94.30
51863;DHT22;37900;52.996;6.278;2023-05-14T13:33:54;17.60;94.30
51863;DHT22;37900;52.996;6.278;2023-05-14T13:36:22;17.60;94.30
51863;DHT22;37900;52.996;6.278;2023-05-14T13:38:47;17.60;94.30
51863;DHT22;37900;52.996;6.278;2023-05-14T13:41:13;17.60;94.30
51863;DHT22;37900;52.996;6.278;2023-05-14T13:43:39;17.60;94.30
51863;DHT22;37900;52.996;6.278;2023-05-14T13:46:05;17.60;94.30
51863;DHT22;37900;52.996;6.278;2023-05-14T13:48:31;17.60;94.30
51863;DHT22;37900;52.996;6.278;2023-05-14T13:50:56;17.60;94.30
51863;DHT22;37900;52.996;6.278;2023-05-14T13:53:22;17.60;94.30
51863;DHT22;37900;52.996;6.278;2023-05-14T13:55:48;17.60;94.30
51863;DHT22;37900;52.996;6.278;2023-05-14T13:58:14;17.60;94.30
51863;DHT22;37900;52.996;6.278;2023-05-14T14:00:40;17.60;94.30
51863;DHT22;37900;52.996;6.278;2023-05-14T14:03:06;17.60;94.40
51863;DHT22;37900;52.996;6.278;2023-05-14T14:05:33;17.80;94.40
51863;DHT22;37900;52.996;6.278;2023-05-14T14:07:59;17.60;94.30
51863;DHT22;37900;52.996;6.278;2023-05-14T14:10:24;17.60;94.30
51863;DHT22;37900;52.996;6.278;2023-05-14T14:12:50;17.60;94.30
51863;DHT22;37900;52.996;6.278;2023-05-14T14:15:16;17.70;94.40
51863;DHT22;37900;52.996;6.278;2023-05-14T14:17:42;17.60;94.30
51863;DHT22;37900;52.996;6.278;2023-05-14T14:20:07;17.60;94.30
51863;DHT22;37900;52.996;6.278;2023-05-14T14:22:34;17.60;94.30
51863;DHT22;37900;52.996;6.278;2023-05-14T14:25:00;17.60;94.30
51863;DHT22;37900;52.996;6.278;2023-05-14T14:27:25;17.60;94.30
51863;DHT22;37900;52.996;6.278;2023-05-14T14:29:51;17.70;94.40
51863;DHT22;37900;52.996;6.278;2023-05-14T14:32:17;17.70;94.40
51863;DHT22;37900;52.996;6.278;2023-05-14T14:34:42;17.60;94.30
51863;DHT22;37900;52.996;6.278;2023-05-14T14:37:08;17.70;94.40
51863;DHT22;37900;52.996;6.278;2023-05-14T14:39:34;17.70;94.40
51863;DHT22;37900;52.996;6.278;2023-05-14T14:41:59;17.60;94.30
51863;DHT22;37900;52.996;6.278;2023-05-14T14:44:25;17.70;94.40
51863;DHT22;37900;52.996;6.278;2023-05-14T14:46:51;17.80;94.40
51863;DHT22;37900;52.996;6.278;2023-05-14T14:49:16;17.70;94.40
51863;DHT22;37900;52.996;6.278;2023-05-14T14:51:42;17.60;94.30
51863;DHT22;37900;52.996;6.278;2023-05-14T14:54:07;17.70;94.40
51863;DHT22;37900;52.996;6.278;2023-05-14T14:56:33;17.70;94.40
51863;DHT22;37900;52.996;6.278;2023-05-14T14:58:59;17.70;94.40
51863;DHT22;37900;52.996;6.278;2023-05-14T15:01:25;17.60;94.40
51863;DHT22;37900;52.996;6.278;2023-05-14T15:03:50;17.70;94.40
51863;DHT22;37900;52.996;6.278;2023-05-14T15:06:16;17.70;94.50
51863;DHT22;37900;52.996;6.278;2023-05-14T15:08:42;17.70;94.50
51863;DHT22;37900;52.996;6.278;2023-05-14T15:11:07;17.70;94.50
51863;DHT22;37900;52.996;6.278;2023-05-14T15:13:33;17.70;94.50
51863;DHT22;37900;52.996;6.278;2023-05-14T15:15:59;17.70;94.50
51863;DHT22;37900;52.996;6.278;2023-05-14T15:18:24;17.70;94.50
51863;DHT22;37900;52.996;6.278;2023-05-14T15:20:50;17.70;94.50
51863;DHT22;37900;52.996;6.278;2023-05-14T15:23:16;17.70;94.50
51863;DHT22;37900;52.996;6.278;2023-05-14T15:25:42;17.70;94.50
51863;DHT22;37900;52.996;6.278;2023-05-14T15:28:08;17.70;94.50
51863;DHT22;37900;52.996;6.278;2023-05-14T15:30:34;17.70;94.50